createdAt,value
2017-02-22T00:00:47.152Z,-2.18
2017-02-22T00:01:47.145Z,-2.21
2017-02-22T00:02:47.116Z,-2.21
2017-02-22T00:03:47.076Z,-2.35
2017-02-22T00:04:47.054Z,-2.25
2017-02-22T00:05:47.054Z,-2.28
2017-02-22T00:06:47.015Z,-2.22
2017-02-22T00:07:47.014Z,-2.35
2017-02-22T00:08:46.996Z,-2.33
2017-02-22T00:09:46.988Z,-2.33
2017-02-22T00:10:46.957Z,-2.4
2017-02-22T00:11:46.930Z,-2.47
2017-02-22T00:12:46.911Z,-2.48
2017-02-22T00:13:46.889Z,-2.51
2017-02-22T00:14:46.858Z,-2.41
2017-02-22T00:15:46.849Z,-2.5
2017-02-22T00:16:46.844Z,-2.55
2017-02-22T00:17:46.839Z,-2.51
2017-02-22T00:18:46.802Z,-2.48
2017-02-22T00:19:46.804Z,-2.4
2017-02-22T00:20:46.756Z,-2.4
2017-02-22T00:21:46.747Z,-2.46
2017-02-22T00:22:46.708Z,-2.48
2017-02-22T00:23:46.709Z,-2.47
2017-02-22T00:24:46.690Z,-2.5
2017-02-22T00:25:46.663Z,-2.47
2017-02-22T00:26:46.628Z,-2.44
2017-02-22T00:27:46.618Z,-2.33
2017-02-22T00:28:46.593Z,-2.38
2017-02-22T00:29:46.586Z,-2.38
2017-02-22T00:30:46.585Z,-2.33
2017-02-22T00:31:46.550Z,-2.37
2017-02-22T00:32:46.545Z,-2.44
2017-02-22T00:33:46.501Z,-2.38
2017-02-22T00:34:46.496Z,-2.4
2017-02-22T00:35:46.470Z,-2.46
2017-02-22T00:36:46.463Z,-2.51
2017-02-22T00:37:46.441Z,-2.44
2017-02-22T00:38:46.411Z,-2.48
2017-02-22T00:39:46.415Z,-2.51
2017-02-22T00:40:46.388Z,-2.5
2017-02-22T00:41:46.354Z,-2.48
2017-02-22T00:42:46.344Z,-2.5
2017-02-22T00:43:46.329Z,-2.51
2017-02-22T00:44:46.299Z,-2.55
2017-02-22T00:45:46.263Z,-2.58
2017-02-22T00:46:46.257Z,-2.51
2017-02-22T00:47:46.250Z,-2.51
2017-02-22T00:48:46.206Z,-2.46
2017-02-22T00:49:46.193Z,-2.58
2017-02-22T00:50:46.187Z,-2.61
2017-02-22T00:51:46.171Z,-2.48
2017-02-22T00:52:46.143Z,-2.53
2017-02-22T00:53:45.740Z,-2.47
2017-02-22T00:54:46.087Z,-2.41
2017-02-22T00:55:46.105Z,-2.38
2017-02-22T00:56:46.084Z,-2.33
2017-02-22T00:57:46.049Z,-2.29
2017-02-22T00:58:46.028Z,-2.29
2017-02-22T00:59:46.023Z,-2.28
2017-02-22T01:00:46.008Z,-2.25
2017-02-22T01:01:45.600Z,-2.19
2017-02-22T01:02:45.577Z,-2.21
2017-02-22T01:03:45.936Z,-2.24
2017-02-22T01:04:45.538Z,-2.29
2017-02-22T01:05:45.513Z,-2.29
2017-02-22T01:06:45.877Z,-2.32
2017-02-22T01:07:45.484Z,-2.16
2017-02-22T01:08:45.848Z,-2.24
2017-02-22T01:09:45.821Z,-2.19
2017-02-22T01:10:45.802Z,-2.21
2017-02-22T01:11:45.796Z,-2.38
2017-02-22T01:12:45.756Z,-2.33
2017-02-22T01:13:45.746Z,-2.32
2017-02-22T01:14:45.723Z,-2.28
2017-02-22T01:15:45.695Z,-2.29
2017-02-22T01:16:45.704Z,-2.4
2017-02-22T01:17:45.666Z,-2.43
2017-02-22T01:18:45.654Z,-2.4
2017-02-22T01:19:45.628Z,-2.4
2017-02-22T01:20:45.616Z,-2.29
2017-02-22T01:21:45.609Z,-2.24
2017-02-22T01:22:45.572Z,-2.21
2017-02-22T01:23:45.540Z,-2.25
2017-02-22T01:24:45.535Z,-2.35
2017-02-22T01:25:45.531Z,-2.28
2017-02-22T01:26:45.510Z,-2.33
2017-02-22T01:27:45.468Z,-2.26
2017-02-22T01:28:45.459Z,-2.37
2017-02-22T01:29:45.450Z,-2.38
2017-02-22T01:30:45.426Z,-2.33
2017-02-22T01:31:45.416Z,-2.4
2017-02-22T01:32:45.368Z,-2.5
2017-02-22T01:33:45.371Z,-2.5
2017-02-22T01:34:45.358Z,-2.48
2017-02-22T01:35:45.326Z,-2.5
2017-02-22T01:36:45.324Z,-2.35
2017-02-22T01:37:45.302Z,-2.5
2017-02-22T01:38:45.282Z,-2.46
2017-02-22T01:39:45.237Z,-2.38
2017-02-22T01:40:45.248Z,-2.48
2017-02-22T01:41:45.207Z,-2.47
2017-02-22T01:42:45.216Z,-2.51
2017-02-22T01:43:45.172Z,-2.48
2017-02-22T01:44:45.148Z,-2.55
2017-02-22T01:45:45.152Z,-2.47
2017-02-22T01:46:45.103Z,-2.41
2017-02-22T01:47:45.097Z,-2.38
2017-02-22T01:48:45.083Z,-2.4
2017-02-22T01:49:44.667Z,-2.35
2017-02-22T01:50:45.026Z,-2.4
2017-02-22T01:51:45.007Z,-2.33
2017-02-22T01:52:45.021Z,-2.38
2017-02-22T01:53:44.590Z,-2.41
2017-02-22T01:54:44.959Z,-2.32
2017-02-22T01:55:44.951Z,-2.4
2017-02-22T01:56:44.924Z,-2.37
2017-02-22T01:57:44.914Z,-2.38
2017-02-22T01:58:44.899Z,-2.51
2017-02-22T01:59:44.492Z,-2.55
2017-02-22T02:00:44.855Z,-2.64
2017-02-22T02:01:44.839Z,-2.68
2017-02-22T02:02:44.819Z,-2.65
2017-02-22T02:03:44.398Z,-2.64
2017-02-22T02:04:44.374Z,-2.66
2017-02-22T02:05:44.789Z,-2.62
2017-02-22T02:06:44.734Z,-2.65
2017-02-22T02:07:44.707Z,-2.66
2017-02-22T02:08:44.687Z,-2.64
2017-02-22T02:09:44.669Z,-2.69
2017-02-22T02:10:44.641Z,-2.65
2017-02-22T02:11:44.626Z,-2.62
2017-02-22T02:12:44.601Z,-2.65
2017-02-22T02:13:44.598Z,-2.62
2017-02-22T02:14:44.560Z,-2.65
2017-02-22T02:15:44.551Z,-2.61
2017-02-22T02:16:44.539Z,-2.65
2017-02-22T02:17:44.498Z,-2.64
2017-02-22T02:18:44.487Z,-2.62
2017-02-22T02:19:44.477Z,-2.62
2017-02-22T02:20:44.469Z,-2.46
2017-02-22T02:21:44.433Z,-2.64
2017-02-22T02:22:44.403Z,-2.64
2017-02-22T02:23:44.381Z,-2.55
2017-02-22T02:24:44.373Z,-2.65
2017-02-22T02:25:44.375Z,-2.64
2017-02-22T02:26:44.347Z,-2.58
2017-02-22T02:27:44.327Z,-2.56
2017-02-22T02:28:44.311Z,-2.58
2017-02-22T02:29:44.277Z,-2.59
2017-02-22T02:30:44.259Z,-2.62
2017-02-22T02:31:44.239Z,-2.65
2017-02-22T02:32:44.225Z,-2.62
2017-02-22T02:33:44.205Z,-2.64
2017-02-22T02:34:44.182Z,-2.58
2017-02-22T02:35:44.160Z,-2.53
2017-02-22T02:36:44.155Z,-2.51
2017-02-22T02:37:44.109Z,-2.61
2017-02-22T02:38:44.113Z,-2.69
2017-02-22T02:39:44.080Z,-2.64
2017-02-22T02:40:44.071Z,-2.62
2017-02-22T02:41:44.056Z,-2.61
2017-02-22T02:42:44.041Z,-2.62
2017-02-22T02:43:44.016Z,-2.61
2017-02-22T02:44:43.987Z,-2.65
2017-02-22T02:45:43.964Z,-2.68
2017-02-22T02:46:43.951Z,-2.65
2017-02-22T02:47:43.938Z,-2.65
2017-02-22T02:48:43.927Z,-2.65
2017-02-22T02:49:43.881Z,-2.65
2017-02-22T02:50:43.871Z,-2.65
2017-02-22T02:51:43.856Z,-2.66
2017-02-22T02:52:43.840Z,-2.61
2017-02-22T02:53:43.804Z,-2.59
2017-02-22T02:54:43.798Z,-2.68
2017-02-22T02:55:43.798Z,-2.61
2017-02-22T02:56:43.753Z,-2.64
2017-02-22T02:57:43.715Z,-2.65
2017-02-22T02:58:43.721Z,-2.65
2017-02-22T02:59:43.689Z,-2.64
2017-02-22T03:00:43.675Z,-2.62
2017-02-22T03:01:43.649Z,-2.66
2017-02-22T03:02:43.628Z,-2.65
2017-02-22T03:03:43.598Z,-2.61
2017-02-22T03:04:43.602Z,-2.61
2017-02-22T03:05:43.577Z,-2.66
2017-02-22T03:06:43.565Z,-2.71
2017-02-22T03:07:43.527Z,-2.65
2017-02-22T03:08:43.136Z,-2.71
2017-02-22T03:09:43.496Z,-2.69
2017-02-22T03:10:43.476Z,-2.71
2017-02-22T03:11:43.468Z,-2.68
2017-02-22T03:12:43.430Z,-2.68
2017-02-22T03:13:43.424Z,-2.68
2017-02-22T03:14:43.390Z,-2.64
2017-02-22T03:15:43.379Z,-2.68
2017-02-22T03:16:43.335Z,-2.72
2017-02-22T03:17:43.345Z,-2.64
2017-02-22T03:18:43.301Z,-2.69
2017-02-22T03:19:43.302Z,-2.66
2017-02-22T03:20:43.292Z,-2.72
2017-02-22T03:21:43.267Z,-2.71
2017-02-22T03:22:43.249Z,-2.72
2017-02-22T03:23:43.250Z,-2.65
2017-02-22T03:24:43.219Z,-2.77
2017-02-22T03:25:43.175Z,-2.65
2017-02-22T03:26:43.142Z,-2.83
2017-02-22T03:27:43.133Z,-2.68
2017-02-22T03:28:43.118Z,-2.69
2017-02-22T03:29:43.094Z,-2.62
2017-02-22T03:30:43.084Z,-2.65
2017-02-22T03:31:43.072Z,-2.72
2017-02-22T03:32:43.037Z,-2.69
2017-02-22T03:33:43.015Z,-2.69
2017-02-22T03:34:43.008Z,-2.65
2017-02-22T03:35:42.989Z,-2.66
2017-02-22T03:36:42.971Z,-2.69
2017-02-22T03:37:42.961Z,-2.68
2017-02-22T03:38:42.914Z,-2.72
2017-02-22T03:39:42.899Z,-2.66
2017-02-22T03:40:42.882Z,-2.69
2017-02-22T03:41:42.881Z,-2.68
2017-02-22T03:42:42.842Z,-2.69
2017-02-22T03:43:42.826Z,-2.72
2017-02-22T03:44:42.814Z,-2.69
2017-02-22T03:45:42.808Z,-2.68
2017-02-22T03:46:42.762Z,-2.82
2017-02-22T03:47:42.757Z,-2.69
2017-02-22T03:48:42.737Z,-2.77
2017-02-22T03:49:42.700Z,-2.87
2017-02-22T03:50:42.683Z,-2.74
2017-02-22T03:51:42.678Z,-2.86
2017-02-22T03:52:42.649Z,-2.77
2017-02-22T03:53:42.628Z,-2.76
2017-02-22T03:54:42.598Z,-2.68
2017-02-22T03:55:42.216Z,-2.71
2017-02-22T03:56:42.570Z,-2.69
2017-02-22T03:57:42.564Z,-2.72
2017-02-22T03:58:42.522Z,-2.74
2017-02-22T03:59:42.505Z,-2.71
2017-02-22T04:00:42.506Z,-2.74
2017-02-22T04:01:42.489Z,-2.71
2017-02-22T04:02:42.445Z,-2.69
2017-02-22T04:03:42.431Z,-2.65
2017-02-22T04:04:42.403Z,-2.72
2017-02-22T04:05:42.382Z,-2.72
2017-02-22T04:06:42.377Z,-2.71
2017-02-22T04:07:42.349Z,-2.68
2017-02-22T04:08:42.338Z,-2.68
2017-02-22T04:09:42.317Z,-2.62
2017-02-22T04:10:42.298Z,-2.61
2017-02-22T04:11:42.279Z,-2.61
2017-02-22T04:12:42.253Z,-2.62
2017-02-22T04:13:42.255Z,-2.64
2017-02-22T04:14:42.214Z,-2.65
2017-02-22T04:15:42.217Z,-2.65
2017-02-22T04:16:42.167Z,-2.62
2017-02-22T04:17:42.188Z,-2.61
2017-02-22T04:18:42.152Z,-2.69
2017-02-22T04:19:42.142Z,-2.71
2017-02-22T04:20:42.115Z,-2.71
2017-02-22T04:21:42.083Z,-2.68
2017-02-22T04:22:42.046Z,-2.83
2017-02-22T04:23:42.051Z,-2.79
2017-02-22T04:24:42.052Z,-2.71
2017-02-22T04:25:41.996Z,-2.74
2017-02-22T04:26:41.995Z,-2.62
2017-02-22T04:27:41.966Z,-2.68
2017-02-22T04:28:41.955Z,-2.72
2017-02-22T04:29:41.928Z,-2.72
2017-02-22T04:30:41.888Z,-2.74
2017-02-22T04:31:41.884Z,-2.71
2017-02-22T04:32:41.872Z,-2.74
2017-02-22T04:33:41.857Z,-2.71
2017-02-22T04:34:41.438Z,-2.66
2017-02-22T04:35:41.421Z,-2.62
2017-02-22T04:36:41.809Z,-2.65
2017-02-22T04:37:41.778Z,-2.64
2017-02-22T04:38:41.758Z,-2.66
2017-02-22T04:39:41.739Z,-2.65
2017-02-22T04:40:41.719Z,-2.64
2017-02-22T04:41:41.688Z,-2.64
2017-02-22T04:42:41.694Z,-2.72
2017-02-22T04:43:41.650Z,-2.69
2017-02-22T04:44:41.627Z,-2.71
2017-02-22T04:45:41.600Z,-2.71
2017-02-22T04:46:41.592Z,-2.72
2017-02-22T04:47:41.572Z,-2.74
2017-02-22T04:48:41.569Z,-2.69
2017-02-22T04:49:41.549Z,-2.77
2017-02-22T04:50:41.528Z,-2.71
2017-02-22T04:51:41.506Z,-2.8
2017-02-22T04:52:41.482Z,-2.79
2017-02-22T04:53:41.455Z,-2.86
2017-02-22T04:54:41.425Z,-2.87
2017-02-22T04:55:41.418Z,-2.79
2017-02-22T04:56:41.407Z,-2.93
2017-02-22T04:57:41.391Z,-2.89
2017-02-22T04:58:41.371Z,-2.89
2017-02-22T04:59:41.354Z,-2.8
2017-02-22T05:00:41.337Z,-2.94
2017-02-22T05:01:41.302Z,-2.89
2017-02-22T05:02:41.306Z,-2.93
2017-02-22T05:03:41.274Z,-2.84
2017-02-22T05:04:41.256Z,-2.93
2017-02-22T05:05:41.237Z,-2.94
2017-02-22T05:06:41.220Z,-2.97
2017-02-22T05:07:41.167Z,-2.94
2017-02-22T05:08:41.168Z,-2.94
2017-02-22T05:09:41.167Z,-2.9
2017-02-22T05:10:41.110Z,-2.87
2017-02-22T05:11:41.100Z,-2.87
2017-02-22T05:12:41.084Z,-2.9
2017-02-22T05:13:41.085Z,-2.76
2017-02-22T05:14:41.046Z,-2.83
2017-02-22T05:15:41.026Z,-2.82
2017-02-22T05:16:41.003Z,-2.89
2017-02-22T05:17:40.990Z,-2.71
2017-02-22T05:18:40.961Z,-2.87
2017-02-22T05:19:40.929Z,-2.87
2017-02-22T05:20:40.935Z,-2.77
2017-02-22T05:21:40.919Z,-2.68
2017-02-22T05:22:40.881Z,-2.68
2017-02-22T05:23:40.892Z,-2.87
2017-02-22T05:24:40.865Z,-2.74
2017-02-22T05:25:40.829Z,-2.82
2017-02-22T05:26:40.823Z,-2.76
2017-02-22T05:27:40.778Z,-2.74
2017-02-22T05:28:40.758Z,-2.79
2017-02-22T05:29:40.745Z,-2.84
2017-02-22T05:30:40.728Z,-2.8
2017-02-22T05:31:40.721Z,-2.77
2017-02-22T05:32:40.701Z,-2.77
2017-02-22T05:33:40.689Z,-2.74
2017-02-22T05:34:40.665Z,-2.8
2017-02-22T05:35:40.641Z,-2.87
2017-02-22T05:36:40.606Z,-2.83
2017-02-22T05:37:40.608Z,-2.95
2017-02-22T05:38:40.580Z,-2.89
2017-02-22T05:39:40.566Z,-2.93
2017-02-22T05:40:40.536Z,-3.01
2017-02-22T05:41:40.519Z,-2.9
2017-02-22T05:42:40.510Z,-2.98
2017-02-22T05:43:40.482Z,-3.04
2017-02-22T05:44:40.482Z,-2.89
2017-02-22T05:45:40.432Z,-2.89
2017-02-22T05:46:40.416Z,-2.9
2017-02-22T05:47:40.400Z,-2.84
2017-02-22T05:48:40.400Z,-2.93
2017-02-22T05:49:40.366Z,-2.9
2017-02-22T05:50:39.978Z,-2.89
2017-02-22T05:51:40.306Z,-2.8
2017-02-22T05:52:40.321Z,-2.83
2017-02-22T05:53:40.265Z,-2.8
2017-02-22T05:54:40.262Z,-2.84
2017-02-22T05:55:40.243Z,-2.83
2017-02-22T05:56:40.242Z,-2.69
2017-02-22T05:57:40.196Z,-2.82
2017-02-22T05:58:40.183Z,-2.86
2017-02-22T05:59:40.160Z,-2.77
2017-02-22T06:00:40.165Z,-2.82
2017-02-22T06:01:40.116Z,-2.71
2017-02-22T06:02:40.108Z,-2.82
2017-02-22T06:03:40.091Z,-2.83
2017-02-22T06:04:40.074Z,-2.82
2017-02-22T06:05:40.043Z,-2.82
2017-02-22T06:06:40.023Z,-2.82
2017-02-22T06:07:40.017Z,-2.86
2017-02-22T06:08:39.990Z,-2.77
2017-02-22T06:09:39.962Z,-2.82
2017-02-22T06:10:39.963Z,-2.83
2017-02-22T06:11:39.934Z,-2.77
2017-02-22T06:12:39.914Z,-2.79
2017-02-22T06:13:39.879Z,-2.86
2017-02-22T06:14:39.866Z,-2.84
2017-02-22T06:15:39.846Z,-2.93
2017-02-22T06:16:39.831Z,-2.97
2017-02-22T06:17:39.838Z,-3
2017-02-22T06:18:39.801Z,-2.97
2017-02-22T06:19:39.763Z,-3
2017-02-22T06:20:39.749Z,-2.95
2017-02-22T06:21:39.743Z,-2.87
2017-02-22T06:22:39.708Z,-2.86
2017-02-22T06:23:39.690Z,-2.89
2017-02-22T06:24:39.655Z,-2.9
2017-02-22T06:25:39.669Z,-2.93
2017-02-22T06:26:39.631Z,-2.79
2017-02-22T06:27:39.624Z,-2.89
2017-02-22T06:28:39.588Z,-2.8
2017-02-22T06:29:39.555Z,-2.77
2017-02-22T06:30:39.565Z,-2.79
2017-02-22T06:31:39.536Z,-2.79
2017-02-22T06:32:39.512Z,-2.86
2017-02-22T06:33:39.492Z,-2.82
2017-02-22T06:34:39.456Z,-2.82
2017-02-22T06:35:39.486Z,-2.9
2017-02-22T06:36:39.419Z,-2.93
2017-02-22T06:37:39.431Z,-2.93
2017-02-22T06:38:39.410Z,-2.84
2017-02-22T06:39:39.400Z,-2.93
2017-02-22T06:40:39.351Z,-2.97
2017-02-22T06:41:39.315Z,-2.97
2017-02-22T06:42:39.328Z,-2.93
2017-02-22T06:43:39.282Z,-2.98
2017-02-22T06:44:39.284Z,-2.98
2017-02-22T06:45:39.248Z,-2.87
2017-02-22T06:46:39.228Z,-2.94
2017-02-22T06:47:39.217Z,-2.87
2017-02-22T06:48:39.188Z,-3
2017-02-22T06:49:39.173Z,-2.93
2017-02-22T06:50:39.165Z,-3
2017-02-22T06:51:39.128Z,-2.87
2017-02-22T06:52:39.112Z,-3
2017-02-22T06:53:38.728Z,-2.9
2017-02-22T06:54:38.675Z,-2.97
2017-02-22T06:55:39.040Z,-3
2017-02-22T06:56:39.042Z,-3.02
2017-02-22T06:57:39.025Z,-3
2017-02-22T06:58:39.015Z,-3
2017-02-22T06:59:38.960Z,-3.01
2017-02-22T07:00:38.595Z,-2.94
2017-02-22T07:01:38.561Z,-2.97
2017-02-22T07:02:38.928Z,-2.95
2017-02-22T07:03:38.540Z,-2.97
2017-02-22T07:04:38.896Z,-2.97
2017-02-22T07:05:38.876Z,-2.84
2017-02-22T07:06:38.835Z,-2.84
2017-02-22T07:07:38.825Z,-2.93
2017-02-22T07:08:38.430Z,-2.89
2017-02-22T07:09:38.775Z,-2.89
2017-02-22T07:10:38.764Z,-2.94
2017-02-22T07:11:38.750Z,-2.83
2017-02-22T07:12:38.723Z,-2.87
2017-02-22T07:13:38.714Z,-2.87
2017-02-22T07:14:38.699Z,-2.79
2017-02-22T07:15:38.286Z,-2.79
2017-02-22T07:16:38.643Z,-2.8
2017-02-22T07:17:38.643Z,-2.69
2017-02-22T07:18:38.622Z,-2.77
2017-02-22T07:19:38.589Z,-2.76
2017-02-22T07:20:38.564Z,-2.76
2017-02-22T07:21:38.567Z,-2.87
2017-02-22T07:22:38.541Z,-2.76
2017-02-22T07:23:38.504Z,-2.86
2017-02-22T07:24:38.511Z,-2.86
2017-02-22T07:25:38.479Z,-2.87
2017-02-22T07:26:38.445Z,-2.95
2017-02-22T07:27:38.423Z,-2.86
2017-02-22T07:28:38.409Z,-2.9
2017-02-22T07:29:38.412Z,-2.89
2017-02-22T07:30:37.993Z,-2.86
2017-02-22T07:31:37.984Z,-2.89
2017-02-22T07:32:38.334Z,-2.84
2017-02-22T07:33:38.323Z,-2.89
2017-02-22T07:34:38.297Z,-2.89
2017-02-22T07:35:38.260Z,-2.76
2017-02-22T07:36:38.252Z,-2.69
2017-02-22T07:37:38.246Z,-2.64
2017-02-22T07:38:38.231Z,-2.53
2017-02-22T07:39:38.196Z,-2.38
2017-02-22T07:40:38.183Z,-2.38
2017-02-22T07:41:38.163Z,-2.26
2017-02-22T07:42:38.152Z,-2.25
2017-02-22T07:43:37.753Z,-2.21
2017-02-22T07:44:38.120Z,-2.13
2017-02-22T07:45:38.093Z,-2.08
2017-02-22T07:46:38.077Z,-2.06
2017-02-22T07:47:38.053Z,-2.07
2017-02-22T07:48:38.034Z,-2.21
2017-02-22T07:49:38.018Z,-2.07
2017-02-22T07:50:37.992Z,-2.16
2017-02-22T07:51:37.973Z,-2.16
2017-02-22T07:52:37.577Z,-2.19
2017-02-22T07:53:37.932Z,-2.21
2017-02-22T07:54:37.527Z,-2.07
2017-02-22T07:55:37.520Z,-2.08
2017-02-22T07:56:37.882Z,-2.07
2017-02-22T07:57:37.467Z,-2.18
2017-02-22T07:58:37.842Z,-2.22
2017-02-22T07:59:37.823Z,-2.13
2017-02-22T08:00:37.413Z,-2.22
2017-02-22T08:01:37.384Z,-2.18
2017-02-22T08:02:37.775Z,-2.22
2017-02-22T08:03:37.383Z,-2.19
2017-02-22T08:04:37.347Z,-2.28
2017-02-22T08:05:37.314Z,-2.22
2017-02-22T08:06:37.299Z,-2.21
2017-02-22T08:07:37.272Z,-2.24
2017-02-22T08:08:37.266Z,-2.07
2017-02-22T08:09:37.251Z,-2
2017-02-22T08:10:37.234Z,-2.06
2017-02-22T08:11:37.587Z,-2.07
2017-02-22T08:12:37.556Z,-2.04
2017-02-22T08:13:37.571Z,-2.07
2017-02-22T08:14:37.548Z,-2.07
2017-02-22T08:15:37.528Z,-2.07
2017-02-22T08:16:37.511Z,-1.93
2017-02-22T08:17:37.480Z,-1.82
2017-02-22T08:18:37.471Z,-1.8
2017-02-22T08:19:37.448Z,-1.77
2017-02-22T08:20:37.410Z,-1.75
2017-02-22T08:21:37.412Z,-1.71
2017-02-22T08:22:37.391Z,-1.71
2017-02-22T08:23:37.372Z,-1.72
2017-02-22T08:24:37.353Z,-1.57
2017-02-22T08:25:37.341Z,-1.57
2017-02-22T08:26:37.322Z,-1.62
2017-02-22T08:27:37.290Z,-1.61
2017-02-22T08:28:37.279Z,-1.7
2017-02-22T08:29:37.268Z,-1.7
2017-02-22T08:30:37.236Z,-1.78
2017-02-22T08:31:37.231Z,-1.68
2017-02-22T08:32:37.183Z,-1.53
2017-02-22T08:33:37.203Z,-1.54
2017-02-22T08:34:37.149Z,-1.59
2017-02-22T08:35:37.151Z,-1.7
2017-02-22T08:36:37.120Z,-1.68
2017-02-22T08:37:37.115Z,-1.61
2017-02-22T08:38:37.094Z,-1.77
2017-02-22T08:39:37.053Z,-1.67
2017-02-22T08:40:37.061Z,-1.64
2017-02-22T08:41:37.051Z,-1.53
2017-02-22T08:42:36.999Z,-1.51
2017-02-22T08:43:36.999Z,-1.38
2017-02-22T08:44:36.965Z,-1.38
2017-02-22T08:45:36.958Z,-1.46
2017-02-22T08:46:36.923Z,-1.57
2017-02-22T08:47:36.903Z,-1.39
2017-02-22T08:48:36.897Z,-1.39
2017-02-22T08:49:36.892Z,-1.43
2017-02-22T08:50:36.855Z,-1.33
2017-02-22T08:51:36.857Z,-1.31
2017-02-22T08:52:36.819Z,-1.38
2017-02-22T08:53:36.816Z,-1.28
2017-02-22T08:54:36.774Z,-1.29
2017-02-22T08:55:36.781Z,-1.26
2017-02-22T08:56:36.776Z,-1.36
2017-02-22T08:57:36.756Z,-1.38
2017-02-22T08:58:36.708Z,-1.38
2017-02-22T08:59:36.713Z,-1.41
2017-02-22T09:00:36.690Z,-1.51
2017-02-22T09:01:36.682Z,-1.46
2017-02-22T09:02:36.648Z,-1.47
2017-02-22T09:03:36.631Z,-1.46
2017-02-22T09:04:36.608Z,-1.38
2017-02-22T09:05:36.600Z,-1.38
2017-02-22T09:06:36.587Z,-1.36
2017-02-22T09:07:36.570Z,-1.35
2017-02-22T09:08:36.539Z,-1.31
2017-02-22T09:09:36.534Z,-1.23
2017-02-22T09:10:36.496Z,-1.15
2017-02-22T09:11:36.486Z,-1.11
2017-02-22T09:12:36.473Z,-1.14
2017-02-22T09:13:36.443Z,-1.11
2017-02-22T09:14:36.441Z,-1.15
2017-02-22T09:15:36.418Z,-1.21
2017-02-22T09:16:36.384Z,-1.23
2017-02-22T09:17:36.361Z,-1.33
2017-02-22T09:18:36.377Z,-1.33
2017-02-22T09:19:36.343Z,-1.29
2017-02-22T09:20:36.313Z,-1.32
2017-02-22T09:21:36.306Z,-1.26
2017-02-22T09:22:36.280Z,-1.21
2017-02-22T09:23:36.271Z,-1.28
2017-02-22T09:24:36.257Z,-1.29
2017-02-22T09:25:36.234Z,-1.35
2017-02-22T09:26:36.214Z,-1.28
2017-02-22T09:27:36.195Z,-1.17
2017-02-22T09:28:36.169Z,-1.17
2017-02-22T09:29:36.165Z,-1.26
2017-02-22T09:30:36.139Z,-1.28
2017-02-22T09:31:36.110Z,-1.28
2017-02-22T09:32:36.116Z,-1.38
2017-02-22T09:33:36.087Z,-1.41
2017-02-22T09:34:36.087Z,-1.32
2017-02-22T09:35:36.051Z,-1.33
2017-02-22T09:36:36.030Z,-1.39
2017-02-22T09:37:36.005Z,-1.44
2017-02-22T09:38:35.985Z,-1.35
2017-02-22T09:39:35.977Z,-1.25
2017-02-22T09:40:35.953Z,-1.23
2017-02-22T09:41:35.937Z,-1.2
2017-02-22T09:42:35.942Z,-1.23
2017-02-22T09:43:35.913Z,-1.31
2017-02-22T09:44:35.897Z,-1.35
2017-02-22T09:45:35.858Z,-1.29
2017-02-22T09:46:35.863Z,-1.29
2017-02-22T09:47:35.854Z,-1.31
2017-02-22T09:48:35.839Z,-1.46
2017-02-22T09:49:35.810Z,-1.35
2017-02-22T09:50:35.782Z,-1.32
2017-02-22T09:51:35.762Z,-1.32
2017-02-22T09:52:35.730Z,-1.33
2017-02-22T09:53:35.747Z,-1.43
2017-02-22T09:54:35.706Z,-1.31
2017-02-22T09:55:35.701Z,-1.36
2017-02-22T09:56:35.682Z,-1.38
2017-02-22T09:57:35.665Z,-1.43
2017-02-22T09:58:35.631Z,-1.41
2017-02-22T09:59:35.605Z,-1.39
2017-02-22T10:00:35.598Z,-1.39
2017-02-22T10:01:35.605Z,-1.44
2017-02-22T10:02:35.570Z,-1.51
2017-02-22T10:03:35.544Z,-1.36
2017-02-22T10:04:35.539Z,-1.36
2017-02-22T10:05:35.516Z,-1.28
2017-02-22T10:06:35.494Z,-1.29
2017-02-22T10:07:35.476Z,-1.32
2017-02-22T10:08:35.471Z,-1.26
2017-02-22T10:09:35.463Z,-1.26
2017-02-22T10:10:35.043Z,-1.36
2017-02-22T10:11:35.408Z,-1.29
2017-02-22T10:12:35.017Z,-1.33
2017-02-22T10:13:35.363Z,-1.28
2017-02-22T10:14:35.369Z,-1.29
2017-02-22T10:15:35.349Z,-1.31
2017-02-22T10:16:35.364Z,-1.31
2017-02-22T10:17:35.286Z,-1.36
2017-02-22T10:18:35.278Z,-1.25
2017-02-22T10:19:35.287Z,-1.29
2017-02-22T10:20:35.240Z,-1.44
2017-02-22T10:21:35.208Z,-1.33
2017-02-22T10:22:35.207Z,-1.29
2017-02-22T10:23:35.177Z,-1.31
2017-02-22T10:24:35.168Z,-1.33
2017-02-22T10:25:35.158Z,-1.33
2017-02-22T10:26:35.149Z,-1.29
2017-02-22T10:27:35.140Z,-1.33
2017-02-22T10:28:35.097Z,-1.35
2017-02-22T10:29:35.082Z,-1.28
2017-02-22T10:30:35.064Z,-1.43
2017-02-22T10:31:35.040Z,-1.36
2017-02-22T10:32:35.035Z,-1.44
2017-02-22T10:33:35.023Z,-1.38
2017-02-22T10:34:34.979Z,-1.32
2017-02-22T10:35:34.969Z,-1.33
2017-02-22T10:36:34.967Z,-1.21
2017-02-22T10:37:34.931Z,-1.23
2017-02-22T10:38:34.923Z,-1.35
2017-02-22T10:39:34.891Z,-1.25
2017-02-22T10:40:34.888Z,-1.35
2017-02-22T10:41:34.871Z,-1.29
2017-02-22T10:42:34.865Z,-1.41
2017-02-22T10:43:34.842Z,-1.33
2017-02-22T10:44:34.820Z,-1.41
2017-02-22T10:45:34.805Z,-1.39
2017-02-22T10:46:34.779Z,-1.39
2017-02-22T10:47:34.767Z,-1.44
2017-02-22T10:48:34.749Z,-1.33
2017-02-22T10:49:34.723Z,-1.29
2017-02-22T10:50:34.713Z,-1.32
2017-02-22T10:51:34.687Z,-1.28
2017-02-22T10:52:34.691Z,-1.32
2017-02-22T10:53:34.665Z,-1.28
2017-02-22T10:54:34.668Z,-1.33
2017-02-22T10:55:34.616Z,-1.33
2017-02-22T10:56:34.603Z,-1.32
2017-02-22T10:57:34.598Z,-1.31
2017-02-22T10:58:34.570Z,-1.39
2017-02-22T10:59:34.569Z,-1.44
2017-02-22T11:00:34.518Z,-1.29
2017-02-22T11:01:34.522Z,-1.39
2017-02-22T11:02:34.495Z,-1.39
2017-02-22T11:03:34.480Z,-1.44
2017-02-22T11:04:34.460Z,-1.35
2017-02-22T11:05:34.455Z,-1.31
2017-02-22T11:06:34.422Z,-1.33
2017-02-22T11:07:34.433Z,-1.35
2017-02-22T11:08:34.416Z,-1.23
2017-02-22T11:09:34.383Z,-1.11
2017-02-22T11:10:34.358Z,-1.07
2017-02-22T11:11:34.353Z,-1.1
2017-02-22T11:12:34.323Z,-1.08
2017-02-22T11:13:34.328Z,-1.11
2017-02-22T11:14:34.287Z,-1.07
2017-02-22T11:15:34.280Z,-1
2017-02-22T11:16:34.282Z,-1.1
2017-02-22T11:17:34.237Z,-1.11
2017-02-22T11:18:34.227Z,-1.11
2017-02-22T11:19:34.188Z,-1.21
2017-02-22T11:20:34.197Z,-1.29
2017-02-22T11:21:34.166Z,-1.31
2017-02-22T11:22:34.152Z,-1.29
2017-02-22T11:23:34.151Z,-1.25
2017-02-22T11:24:34.128Z,-1.26
2017-02-22T11:25:34.099Z,-1.32
2017-02-22T11:26:34.093Z,-1.26
2017-02-22T11:27:34.090Z,-1.32
2017-02-22T11:28:34.043Z,-1.33
2017-02-22T11:29:34.025Z,-1.41
2017-02-22T11:30:33.645Z,-1.39
2017-02-22T11:31:34.004Z,-1.41
2017-02-22T11:32:33.987Z,-1.39
2017-02-22T11:33:33.967Z,-1.51
2017-02-22T11:34:33.933Z,-1.53
2017-02-22T11:35:33.946Z,-1.64
2017-02-22T11:36:33.908Z,-1.54
2017-02-22T11:37:33.874Z,-1.65
2017-02-22T11:38:33.871Z,-1.67
2017-02-22T11:39:33.854Z,-1.64
2017-02-22T11:40:33.838Z,-1.65
2017-02-22T11:41:33.816Z,-1.62
2017-02-22T11:42:33.438Z,-1.51
2017-02-22T11:43:33.768Z,-1.41
2017-02-22T11:44:33.777Z,-1.56
2017-02-22T11:45:33.765Z,-1.51
2017-02-22T11:46:33.732Z,-1.47
2017-02-22T11:47:33.333Z,-1.59
2017-02-22T11:48:33.716Z,-1.54
2017-02-22T11:49:33.684Z,-1.68
2017-02-22T11:50:33.654Z,-1.75
2017-02-22T11:51:33.658Z,-1.9
2017-02-22T11:52:33.630Z,-1.89
2017-02-22T11:53:33.615Z,-1.9
2017-02-22T11:54:33.201Z,-1.86
2017-02-22T11:55:33.572Z,-1.86
2017-02-22T11:56:33.563Z,-1.8
2017-02-22T11:57:33.527Z,-1.7
2017-02-22T11:58:33.499Z,-1.85
2017-02-22T11:59:33.500Z,-1.88
2017-02-22T12:00:33.480Z,-1.88
2017-02-22T12:01:33.459Z,-1.93
2017-02-22T12:02:33.457Z,-1.82
2017-02-22T12:03:33.415Z,-1.77
2017-02-22T12:04:33.439Z,-1.65
2017-02-22T12:05:33.418Z,-1.67
2017-02-22T12:06:32.987Z,-1.68
2017-02-22T12:07:32.981Z,-1.77
2017-02-22T12:08:33.347Z,-1.7
2017-02-22T12:09:33.322Z,-1.67
2017-02-22T12:10:32.904Z,-1.61
2017-02-22T12:11:33.305Z,-1.64
2017-02-22T12:12:32.882Z,-1.51
2017-02-22T12:13:33.248Z,-1.53
2017-02-22T12:14:33.235Z,-1.5
2017-02-22T12:15:33.206Z,-1.5
2017-02-22T12:16:33.203Z,-1.47
2017-02-22T12:17:33.184Z,-1.64
2017-02-22T12:18:33.166Z,-1.67
2017-02-22T12:19:33.154Z,-1.65
2017-02-22T12:20:33.131Z,-1.74
2017-02-22T12:21:32.731Z,-1.67
2017-02-22T12:22:32.720Z,-1.65
2017-02-22T12:23:33.078Z,-1.64
2017-02-22T12:24:33.075Z,-1.83
2017-02-22T12:25:33.043Z,-1.83
2017-02-22T12:26:33.028Z,-1.77
2017-02-22T12:27:33.028Z,-1.65
2017-02-22T12:28:32.986Z,-1.7
2017-02-22T12:29:33.009Z,-1.7
2017-02-22T12:30:32.959Z,-1.64
2017-02-22T12:31:32.964Z,-1.7
2017-02-22T12:32:32.938Z,-1.64
2017-02-22T12:33:32.915Z,-1.72
2017-02-22T12:34:32.907Z,-1.75
2017-02-22T12:35:32.868Z,-1.77
2017-02-22T12:36:32.843Z,-1.68
2017-02-22T12:37:32.856Z,-1.65
2017-02-22T12:38:32.814Z,-1.61
2017-02-22T12:39:32.829Z,-1.51
2017-02-22T12:40:32.791Z,-1.39
2017-02-22T12:41:32.767Z,-1.32
2017-02-22T12:42:32.778Z,-1.31
2017-02-22T12:43:32.752Z,-1.13
2017-02-22T12:44:32.729Z,-1.2
2017-02-22T12:45:32.706Z,-1.28
2017-02-22T12:46:32.729Z,-1.28
2017-02-22T12:47:32.671Z,-1.25
2017-02-22T12:48:32.652Z,-1.47
2017-02-22T12:49:32.650Z,-1.46
2017-02-22T12:50:32.620Z,-1.41
2017-02-22T12:51:32.607Z,-1.53
2017-02-22T12:52:32.604Z,-1.62
2017-02-22T12:53:32.568Z,-1.88
2017-02-22T12:54:32.179Z,-1.9
2017-02-22T12:55:32.544Z,-2.08